createdAt,value
2018-03-08T00:00:08.442Z,81.36
2018-03-08T00:02:35.901Z,81.12
2018-03-08T00:05:03.333Z,81.04
2018-03-08T00:07:31.048Z,80.80
2018-03-08T00:09:58.481Z,81.08
2018-03-08T00:12:25.917Z,81.21
2018-03-08T00:14:53.499Z,81.46
2018-03-08T00:17:20.947Z,81.65
2018-03-08T00:19:48.414Z,81.33
2018-03-08T00:22:15.857Z,81.34
2018-03-08T00:24:43.313Z,81.30
2018-03-08T00:27:10.769Z,81.68
2018-03-08T00:29:38.221Z,81.34
2018-03-08T00:32:05.707Z,81.58
2018-03-08T00:34:33.146Z,81.85
2018-03-08T00:37:00.876Z,82.30
2018-03-08T00:39:28.361Z,81.86
2018-03-08T00:41:55.805Z,81.88
2018-03-08T00:44:23.597Z,82.57
2018-03-08T00:46:51.070Z,82.25
2018-03-08T00:49:18.529Z,82.43
2018-03-08T00:51:45.985Z,82.48
2018-03-08T00:54:13.424Z,82.72
2018-03-08T00:56:41.157Z,82.23
2018-03-08T00:59:08.593Z,82.49
2018-03-08T01:01:36.049Z,82.20
2018-03-08T01:04:03.505Z,82.35
2018-03-08T01:06:30.949Z,82.66
2018-03-08T01:08:58.435Z,82.81
2018-03-08T01:11:25.869Z,82.85
2018-03-08T01:13:53.316Z,82.70
2018-03-08T01:16:20.777Z,82.64
2018-03-08T01:18:48.213Z,82.85
2018-03-08T01:21:15.768Z,82.85
2018-03-08T01:23:43.218Z,82.77
2018-03-08T01:26:10.664Z,83.21
2018-03-08T01:28:38.149Z,83.12
2018-03-08T01:31:05.587Z,83.19
2018-03-08T01:33:33.098Z,83.20
2018-03-08T01:36:00.533Z,83.01
2018-03-08T01:38:27.994Z,83.40
2018-03-08T01:40:55.461Z,83.77
2018-03-08T01:43:22.934Z,83.39
2018-03-08T01:45:50.407Z,83.65
2018-03-08T01:48:17.900Z,83.87
2018-03-08T01:50:45.357Z,83.70
2018-03-08T01:53:12.816Z,83.80
2018-03-08T01:55:40.254Z,83.87
2018-03-08T01:58:07.730Z,84.01
2018-03-08T02:00:35.197Z,84.25
2018-03-08T02:03:02.636Z,84.29
2018-03-08T02:05:30.113Z,85.08
2018-03-08T02:07:57.549Z,85.04
2018-03-08T02:10:25.025Z,84.71
2018-03-08T02:12:52.465Z,84.70
2018-03-08T02:15:19.929Z,85.06
2018-03-08T02:17:47.390Z,84.77
2018-03-08T02:20:14.829Z,84.55
2018-03-08T02:22:42.593Z,85.23
2018-03-08T02:25:10.032Z,85.55
2018-03-08T02:27:37.465Z,84.67
2018-03-08T02:30:04.942Z,84.60
2018-03-08T02:32:32.425Z,85.00
2018-03-08T02:35:00.408Z,85.29
2018-03-08T02:37:27.865Z,85.24
2018-03-08T02:39:55.319Z,85.38
2018-03-08T02:42:22.774Z,84.62
2018-03-08T02:44:50.266Z,86.28
2018-03-08T02:47:17.742Z,85.68
2018-03-08T02:49:45.178Z,85.30
2018-03-08T02:52:12.634Z,85.12
2018-03-08T02:54:40.097Z,85.01
2018-03-08T02:57:07.545Z,84.92
2018-03-08T02:59:35.145Z,85.01
2018-03-08T03:02:02.592Z,86.11
2018-03-08T03:04:30.029Z,85.17
2018-03-08T03:06:57.485Z,85.08
2018-03-08T03:09:24.929Z,85.12
2018-03-08T03:11:52.601Z,85.32
2018-03-08T03:14:20.045Z,85.87
2018-03-08T03:16:47.510Z,85.05
2018-03-08T03:19:14.995Z,85.27
2018-03-08T03:21:42.457Z,84.82
2018-03-08T03:24:09.919Z,84.90
2018-03-08T03:26:37.393Z,85.83
2018-03-08T03:29:04.838Z,85.78
2018-03-08T03:31:32.307Z,85.66
2018-03-08T03:33:59.754Z,86.26
2018-03-08T03:36:27.376Z,87.21
2018-03-08T03:38:54.813Z,87.10
2018-03-08T03:41:22.253Z,86.69
2018-03-08T03:43:49.769Z,87.05
2018-03-08T03:46:17.210Z,86.09
2018-03-08T03:48:44.682Z,86.27
2018-03-08T03:51:12.113Z,87.17
2018-03-08T03:53:39.553Z,86.07
2018-03-08T03:56:07.011Z,85.88
2018-03-08T03:58:34.473Z,85.73
2018-03-08T04:01:07.949Z,86.53
2018-03-08T04:03:35.385Z,85.43
2018-03-08T04:06:02.826Z,85.05
2018-03-08T04:08:30.289Z,85.53
2018-03-08T04:10:57.725Z,85.31
2018-03-08T04:13:25.282Z,85.73
2018-03-08T04:15:52.722Z,86.38
2018-03-08T04:18:20.163Z,86.54
2018-03-08T04:20:47.637Z,85.75
2018-03-08T04:23:15.086Z,85.92
2018-03-08T04:25:42.550Z,86.11
2018-03-08T04:28:10.000Z,86.26
2018-03-08T04:30:37.433Z,86.10
2018-03-08T04:33:04.898Z,87.05
2018-03-08T04:35:32.349Z,86.69
2018-03-08T04:37:59.813Z,86.71
2018-03-08T04:40:27.264Z,87.49
2018-03-08T04:42:54.697Z,87.56
2018-03-08T04:45:22.165Z,88.15
2018-03-08T04:47:49.614Z,87.82
2018-03-08T04:50:17.221Z,87.52
2018-03-08T04:52:44.673Z,87.47
2018-03-08T04:55:12.113Z,87.54
2018-03-08T04:57:39.582Z,87.56
2018-03-08T05:00:07.023Z,87.35
2018-03-08T05:02:34.660Z,87.80
2018-03-08T05:05:02.098Z,89.37
2018-03-08T05:07:29.542Z,88.52
2018-03-08T05:09:57.006Z,88.16
2018-03-08T05:12:24.469Z,88.59
2018-03-08T05:14:52.330Z,88.38
2018-03-08T05:17:19.808Z,87.72
2018-03-08T05:19:47.229Z,87.41
2018-03-08T05:22:14.708Z,87.21
2018-03-08T05:24:42.153Z,86.84
2018-03-08T05:27:09.621Z,86.51
2018-03-08T05:29:37.085Z,87.87
2018-03-08T05:32:04.549Z,88.10
2018-03-08T05:34:32.005Z,88.10
2018-03-08T05:36:59.474Z,87.79
2018-03-08T05:39:26.969Z,87.64
2018-03-08T05:41:54.423Z,88.38
2018-03-08T05:44:21.866Z,88.19
2018-03-08T05:46:49.329Z,88.39
2018-03-08T05:49:16.770Z,88.18
2018-03-08T05:51:44.393Z,88.88
2018-03-08T05:54:11.833Z,88.77
2018-03-08T05:56:39.290Z,88.73
2018-03-08T05:59:06.757Z,89.22
2018-03-08T06:01:34.205Z,88.86
2018-03-08T06:04:01.829Z,88.19
2018-03-08T06:06:29.282Z,87.96
2018-03-08T06:08:56.747Z,88.21
2018-03-08T06:11:24.221Z,87.94
2018-03-08T06:13:51.665Z,87.71
2018-03-08T06:16:19.171Z,87.77
2018-03-08T06:18:46.625Z,87.80
2018-03-08T06:21:14.069Z,88.39
2018-03-08T06:23:41.534Z,88.32
2018-03-08T06:26:08.996Z,88.00
2018-03-08T06:28:36.625Z,88.11
2018-03-08T06:31:04.086Z,88.45
2018-03-08T06:33:31.550Z,88.18
2018-03-08T06:35:59.014Z,88.21
2018-03-08T06:38:26.461Z,88.04
2018-03-08T06:40:53.946Z,88.29
2018-03-08T06:43:21.389Z,87.73
2018-03-08T06:45:48.830Z,88.11
2018-03-08T06:48:16.289Z,88.34
2018-03-08T06:50:43.729Z,88.54
2018-03-08T06:53:11.326Z,88.22
2018-03-08T06:55:38.774Z,88.06
2018-03-08T06:58:06.221Z,87.85
2018-03-08T07:00:33.689Z,87.28
2018-03-08T07:03:01.142Z,86.91
2018-03-08T07:05:28.618Z,86.64
2018-03-08T07:07:56.382Z,86.73
2018-03-08T07:10:23.879Z,86.13
2018-03-08T07:12:51.345Z,86.41
2018-03-08T07:15:18.791Z,86.01
2018-03-08T07:17:46.262Z,85.71
2018-03-08T07:20:13.697Z,85.85
2018-03-08T07:22:41.133Z,86.21
2018-03-08T07:25:08.591Z,86.48
2018-03-08T07:27:36.034Z,86.09
2018-03-08T07:30:03.677Z,85.74
2018-03-08T07:32:31.121Z,84.79
2018-03-08T07:34:58.571Z,85.01
2018-03-08T07:37:26.038Z,85.07
2018-03-08T07:39:53.479Z,85.08
2018-03-08T07:42:21.125Z,85.17
2018-03-08T07:44:48.579Z,84.42
2018-03-08T07:47:16.033Z,84.64
2018-03-08T07:49:43.490Z,84.84
2018-03-08T07:52:10.930Z,84.34
2018-03-08T07:54:38.590Z,84.07
2018-03-08T07:57:06.054Z,84.03
2018-03-08T07:59:33.522Z,83.61
2018-03-08T08:02:00.992Z,83.98
2018-03-08T08:04:40.201Z,83.82
2018-03-08T08:07:19.441Z,83.59
2018-03-08T08:09:46.890Z,83.35
2018-03-08T08:12:14.361Z,83.55
2018-03-08T08:14:41.793Z,83.29
2018-03-08T08:17:09.278Z,83.02
2018-03-08T08:19:36.717Z,83.44
2018-03-08T08:22:04.153Z,83.59
2018-03-08T08:24:31.625Z,82.99
2018-03-08T08:26:59.061Z,82.66
2018-03-08T08:29:26.561Z,83.09
2018-03-08T08:31:54.010Z,82.75
2018-03-08T08:34:21.457Z,82.47
2018-03-08T08:36:48.918Z,82.14
2018-03-08T08:39:16.375Z,82.14
2018-03-08T08:41:43.957Z,82.43
2018-03-08T08:44:11.390Z,82.69
2018-03-08T08:46:38.831Z,82.39
2018-03-08T08:49:06.316Z,82.10
2018-03-08T08:51:33.758Z,82.01
2018-03-08T08:54:01.397Z,81.60
2018-03-08T08:56:28.846Z,81.74
2018-03-08T08:58:56.296Z,81.84
2018-03-08T09:01:23.750Z,81.23
2018-03-08T09:03:51.182Z,80.79
2018-03-08T09:06:18.822Z,80.72
2018-03-08T09:08:46.266Z,80.00
2018-03-08T09:11:13.709Z,79.30
2018-03-08T09:13:41.174Z,78.59
2018-03-08T09:16:08.613Z,78.33
2018-03-08T09:18:36.077Z,78.08
2018-03-08T09:21:03.538Z,78.57
2018-03-08T09:23:30.970Z,78.39
2018-03-08T09:25:58.428Z,77.71
2018-03-08T09:28:25.889Z,77.43
2018-03-08T09:30:53.446Z,76.89
2018-03-08T09:33:20.878Z,77.40
2018-03-08T09:35:48.318Z,76.57
2018-03-08T09:38:15.802Z,76.27
2018-03-08T09:40:43.237Z,75.61
2018-03-08T09:43:10.902Z,75.91
2018-03-08T09:45:38.434Z,75.78
2018-03-08T09:48:05.893Z,76.11
2018-03-08T09:50:33.353Z,76.83
2018-03-08T09:53:00.785Z,76.26
2018-03-08T09:55:28.257Z,76.18
2018-03-08T09:57:55.699Z,75.39
2018-03-08T10:00:23.137Z,74.98
2018-03-08T10:02:50.609Z,74.56
2018-03-08T10:05:18.046Z,74.18
2018-03-08T10:07:45.653Z,73.74
2018-03-08T10:10:13.109Z,73.82
2018-03-08T10:12:40.553Z,74.29
2018-03-08T10:15:08.015Z,73.36
2018-03-08T10:17:35.484Z,73.01
2018-03-08T10:20:02.958Z,71.74
2018-03-08T10:22:30.393Z,71.86
2018-03-08T10:24:57.832Z,71.12
2018-03-08T10:27:25.290Z,71.00
2018-03-08T10:29:52.726Z,70.13
2018-03-08T10:32:20.386Z,70.40
2018-03-08T10:34:47.854Z,68.86
2018-03-08T10:37:15.418Z,69.22
2018-03-08T10:39:42.934Z,68.59
2018-03-08T10:42:10.365Z,68.32
2018-03-08T10:44:37.841Z,67.43
2018-03-08T10:47:05.288Z,67.86
2018-03-08T10:49:32.725Z,68.02
2018-03-08T10:52:00.183Z,67.78
2018-03-08T10:54:27.633Z,67.47
2018-03-08T10:56:55.286Z,67.59
2018-03-08T10:59:22.721Z,66.38
2018-03-08T11:01:55.784Z,66.52
2018-03-08T11:04:28.342Z,65.19
2018-03-08T11:06:55.809Z,65.96
2018-03-08T11:09:23.281Z,64.75
2018-03-08T11:11:50.733Z,64.34
2018-03-08T11:14:18.189Z,65.81
2018-03-08T11:16:45.638Z,64.80
2018-03-08T11:19:13.273Z,64.92
2018-03-08T11:21:41.309Z,65.61
2018-03-08T11:24:08.742Z,65.77
2018-03-08T11:26:36.223Z,65.23
2018-03-08T11:29:03.674Z,64.47
2018-03-08T11:31:31.328Z,63.45
2018-03-08T11:33:58.782Z,63.92
2018-03-08T11:36:26.238Z,63.32
2018-03-08T11:38:53.701Z,62.18
2018-03-08T11:41:21.143Z,61.79
2018-03-08T11:43:48.786Z,61.75
2018-03-08T11:46:16.241Z,60.24
2018-03-08T11:48:43.693Z,60.17
2018-03-08T11:51:11.159Z,59.02
2018-03-08T11:53:38.621Z,59.76
2018-03-08T11:56:06.310Z,58.75
2018-03-08T11:58:33.753Z,58.73
2018-03-08T12:01:01.220Z,59.32
2018-03-08T12:03:28.718Z,58.26
2018-03-08T12:05:56.200Z,58.49
2018-03-08T12:08:23.664Z,58.48
2018-03-08T12:10:51.102Z,55.84
2018-03-08T12:13:18.561Z,54.95
2018-03-08T12:15:46.031Z,55.28
2018-03-08T12:18:13.480Z,56.24
2018-03-08T12:20:40.953Z,55.87
2018-03-08T12:23:08.397Z,56.55
2018-03-08T12:25:35.848Z,56.30
2018-03-08T12:28:03.329Z,56.58
2018-03-08T12:30:30.773Z,56.07
2018-03-08T12:32:58.246Z,55.81
2018-03-08T12:35:25.716Z,55.35
2018-03-08T12:37:53.160Z,55.71
2018-03-08T12:40:20.662Z,55.49
2018-03-08T12:42:48.137Z,55.12
2018-03-08T12:45:15.750Z,54.62
2018-03-08T12:47:43.189Z,54.07
2018-03-08T12:50:10.641Z,53.87
2018-03-08T12:52:38.112Z,54.17
2018-03-08T12:55:05.562Z,54.02
2018-03-08T12:57:33.191Z,53.69
2018-03-08T13:00:00.642Z,53.46
2018-03-08T13:02:28.081Z,53.58
2018-03-08T13:04:55.553Z,52.65
2018-03-08T13:07:23.005Z,53.28
2018-03-08T13:09:50.481Z,53.13
2018-03-08T13:12:17.925Z,53.07
2018-03-08T13:14:45.387Z,53.20
2018-03-08T13:17:12.859Z,53.42
2018-03-08T13:19:41.644Z,53.66
2018-03-08T13:22:09.310Z,53.49
2018-03-08T13:24:36.756Z,53.52
2018-03-08T13:27:04.218Z,54.06
2018-03-08T13:29:31.681Z,54.93
2018-03-08T13:31:59.130Z,54.84
2018-03-08T13:34:26.570Z,55.20
2018-03-08T13:36:54.061Z,55.43
2018-03-08T13:39:21.526Z,55.51
2018-03-08T13:41:48.973Z,55.97
2018-03-08T13:44:16.445Z,55.86
2018-03-08T13:46:43.885Z,56.10
2018-03-08T13:49:23.566Z,55.65
2018-03-08T13:51:51.005Z,55.39
2018-03-08T13:54:18.449Z,55.47
2018-03-08T13:56:45.925Z,55.42
2018-03-08T13:59:13.366Z,54.98
2018-03-08T14:01:40.806Z,54.65
2018-03-08T14:04:08.266Z,54.79
2018-03-08T14:06:35.721Z,54.13
2018-03-08T14:09:03.161Z,53.59
2018-03-08T14:11:30.786Z,53.09
2018-03-08T14:13:58.253Z,53.18
2018-03-08T14:16:25.692Z,53.57
2018-03-08T14:18:53.465Z,52.81
2018-03-08T14:21:20.921Z,52.49
2018-03-08T14:23:48.359Z,52.68
2018-03-08T14:26:15.831Z,53.07
2018-03-08T14:28:43.278Z,52.01
2018-03-08T14:31:10.885Z,51.91
2018-03-08T14:33:38.337Z,51.72
2018-03-08T14:36:05.773Z,51.37
2018-03-08T14:38:33.250Z,51.68
2018-03-08T14:41:00.957Z,52.47
2018-03-08T14:43:28.421Z,52.47
2018-03-08T14:45:56.661Z,53.17
2018-03-08T14:48:24.112Z,53.05
2018-03-08T14:50:51.577Z,53.14
2018-03-08T14:53:19.013Z,52.61
2018-03-08T14:55:46.522Z,52.48
2018-03-08T14:58:14.004Z,53.08
2018-03-08T15:00:41.453Z,52.79
2018-03-08T15:03:08.989Z,52.20
2018-03-08T15:05:36.440Z,52.27
2018-03-08T15:08:04.154Z,52.27
2018-03-08T15:10:31.604Z,51.98
2018-03-08T15:12:59.066Z,51.17
2018-03-08T15:15:26.799Z,50.81
2018-03-08T15:17:54.269Z,50.76
2018-03-08T15:20:21.738Z,49.77
2018-03-08T15:22:49.181Z,49.42
2018-03-08T15:25:16.625Z,48.54
2018-03-08T15:27:44.150Z,48.92
2018-03-08T15:30:11.586Z,49.76
2018-03-08T15:32:39.097Z,49.64
2018-03-08T15:35:06.551Z,49.72
2018-03-08T15:37:33.999Z,49.50
2018-03-08T15:40:01.509Z,49.83
2018-03-08T15:42:28.918Z,50.12
2018-03-08T15:44:56.397Z,50.08
2018-03-08T15:47:23.864Z,50.22
2018-03-08T15:49:51.310Z,50.18
2018-03-08T15:52:18.844Z,50.01
2018-03-08T15:54:46.292Z,49.61
2018-03-08T15:57:13.757Z,50.21
2018-03-08T15:59:41.196Z,49.78
2018-03-08T16:02:08.827Z,49.86
2018-03-08T16:04:36.313Z,50.22
2018-03-08T16:10:21.137Z,49.53
2018-03-08T16:12:49.149Z,50.12
2018-03-08T16:15:16.601Z,49.82
2018-03-08T16:17:44.059Z,49.77
2018-03-08T16:20:11.547Z,50.00
2018-03-08T16:22:39.001Z,50.16
2018-03-08T16:25:06.589Z,49.38
2018-03-08T16:27:34.030Z,49.65
2018-03-08T16:30:01.474Z,50.04
2018-03-08T16:32:28.957Z,49.88
2018-03-08T16:34:56.425Z,50.12
2018-03-08T16:37:24.135Z,50.16
2018-03-08T16:39:51.618Z,50.90
2018-03-08T16:42:20.074Z,51.04
2018-03-08T16:44:47.566Z,51.00
2018-03-08T16:47:15.015Z,51.23
2018-03-08T16:49:42.839Z,51.59
2018-03-08T16:52:10.287Z,51.52
2018-03-08T16:54:37.727Z,51.34
2018-03-08T16:57:05.218Z,51.74
2018-03-08T16:59:32.697Z,51.38
2018-03-08T17:02:00.166Z,51.60
2018-03-08T17:04:27.606Z,51.42
2018-03-08T17:06:55.075Z,51.77
2018-03-08T17:09:22.579Z,52.02
2018-03-08T17:11:50.001Z,51.99
2018-03-08T17:14:17.717Z,51.76
2018-03-08T17:16:45.161Z,52.19
2018-03-08T17:19:12.605Z,53.16
2018-03-08T17:21:40.090Z,54.88
2018-03-08T17:24:07.535Z,57.16
2018-03-08T17:26:35.001Z,59.28
2018-03-08T17:29:02.437Z,60.55
2018-03-08T17:31:29.877Z,60.61
2018-03-08T17:33:57.341Z,61.22
2018-03-08T17:36:24.793Z,61.43
2018-03-08T17:38:52.409Z,61.23
2018-03-08T17:41:19.862Z,61.89
2018-03-08T17:43:47.310Z,63.55
2018-03-08T17:46:14.905Z,64.33
2018-03-08T17:48:42.367Z,65.71
2018-03-08T17:51:10.161Z,68.79
2018-03-08T17:53:37.603Z,71.65
2018-03-08T17:56:05.065Z,76.17
2018-03-08T17:58:32.523Z,78.14
2018-03-08T18:01:00.409Z,78.73
2018-03-08T18:03:27.878Z,80.91
2018-03-08T18:05:55.322Z,81.26
2018-03-08T18:08:22.762Z,81.45
2018-03-08T18:10:50.261Z,83.83
2018-03-08T18:13:17.697Z,82.96
2018-03-08T18:15:45.493Z,83.09
2018-03-08T18:18:12.933Z,83.30
2018-03-08T18:20:41.385Z,81.34
2018-03-08T18:23:08.852Z,81.99
2018-03-08T18:25:36.286Z,82.56
2018-03-08T18:28:03.800Z,82.81
2018-03-08T18:30:31.233Z,82.82
2018-03-08T18:32:58.673Z,83.81
2018-03-08T18:35:26.294Z,84.73
2018-03-08T18:37:53.760Z,83.81
2018-03-08T18:40:21.217Z,84.11
2018-03-08T18:42:48.654Z,84.20
2018-03-08T18:45:16.450Z,83.75
2018-03-08T18:47:44.078Z,84.41
2018-03-08T18:50:11.534Z,84.53
2018-03-08T18:52:39.005Z,84.03
2018-03-08T18:55:06.441Z,82.57
2018-03-08T18:57:34.093Z,82.92
2018-03-08T19:00:01.625Z,82.28
2018-03-08T19:02:29.073Z,80.79
2018-03-08T19:04:56.542Z,81.62
2018-03-08T19:07:24.010Z,84.06
2018-03-08T19:09:51.761Z,81.63
2018-03-08T19:12:19.229Z,81.75
2018-03-08T19:14:46.678Z,81.72
2018-03-08T19:17:14.161Z,82.38
2018-03-08T19:19:41.620Z,83.93
2018-03-08T19:22:09.522Z,83.00
2018-03-08T19:24:36.962Z,82.99
2018-03-08T19:27:04.482Z,82.79
2018-03-08T19:29:31.945Z,83.08
2018-03-08T19:31:59.386Z,83.53
2018-03-08T19:34:26.900Z,83.23
2018-03-08T19:36:54.404Z,83.48
2018-03-08T19:39:21.846Z,83.81
2018-03-08T19:41:49.309Z,82.24
2018-03-08T19:44:16.745Z,82.63
2018-03-08T19:46:44.509Z,82.38
2018-03-08T19:49:13.345Z,82.38
2018-03-08T19:51:40.794Z,82.79
2018-03-08T19:54:08.250Z,82.77
2018-03-08T19:56:35.702Z,82.62
2018-03-08T19:59:03.200Z,82.80
2018-03-08T20:01:30.637Z,82.37
2018-03-08T20:03:58.946Z,83.15
2018-03-08T20:06:26.413Z,82.60
2018-03-08T20:08:53.852Z,82.61
2018-03-08T20:11:21.355Z,83.41
2018-03-08T20:13:48.806Z,82.20
2018-03-08T20:16:16.257Z,82.06
2018-03-08T20:18:43.721Z,81.66
2018-03-08T20:21:11.157Z,82.59
2018-03-08T20:23:38.641Z,82.71
2018-03-08T20:26:06.856Z,82.35
2018-03-08T20:28:34.293Z,81.79
2018-03-08T20:31:01.761Z,80.60
2018-03-08T20:33:29.217Z,79.37
2018-03-08T20:35:56.691Z,80.20
2018-03-08T20:38:24.379Z,80.55
2018-03-08T20:40:51.816Z,81.55
2018-03-08T20:43:19.277Z,82.74
2018-03-08T20:45:46.810Z,82.09
2018-03-08T20:48:14.289Z,82.10
2018-03-08T20:50:41.726Z,82.48
2018-03-08T20:53:09.174Z,81.60
2018-03-08T20:55:36.665Z,80.92
2018-03-08T20:58:04.133Z,80.70
2018-03-08T21:00:31.635Z,80.94
2018-03-08T21:02:59.090Z,80.43
2018-03-08T21:05:26.530Z,80.98
2018-03-08T21:07:54.006Z,81.24
2018-03-08T21:10:21.441Z,81.08
2018-03-08T21:12:49.029Z,81.77
2018-03-08T21:15:16.490Z,81.29
2018-03-08T21:17:43.939Z,81.18
2018-03-08T21:20:11.405Z,79.58
2018-03-08T21:22:38.854Z,81.56
2018-03-08T21:25:06.466Z,82.29
2018-03-08T21:27:33.916Z,82.55
2018-03-08T21:30:01.350Z,81.78
2018-03-08T21:32:28.810Z,82.32
2018-03-08T21:34:56.246Z,82.32
2018-03-08T21:37:23.817Z,83.01
2018-03-08T21:39:51.266Z,82.54
2018-03-08T21:42:18.709Z,82.87
2018-03-08T21:44:46.165Z,83.67
2018-03-08T21:47:13.605Z,82.83
2018-03-08T21:49:41.268Z,82.76
2018-03-08T21:52:08.705Z,82.90
2018-03-08T21:54:36.170Z,82.89
2018-03-08T21:57:03.625Z,83.53
2018-03-08T21:59:31.117Z,82.90
2018-03-08T22:01:58.746Z,81.86
2018-03-08T22:04:26.187Z,82.71
2018-03-08T22:06:53.621Z,83.28
2018-03-08T22:09:21.083Z,82.89
2018-03-08T22:11:48.526Z,83.07
2018-03-08T22:14:16.177Z,83.45
2018-03-08T22:16:43.631Z,84.19
2018-03-08T22:19:11.067Z,83.81
2018-03-08T22:21:38.542Z,84.54
2018-03-08T22:24:05.977Z,84.24
2018-03-08T22:26:33.625Z,84.61
2018-03-08T22:29:01.059Z,84.76
2018-03-08T22:31:28.501Z,84.16
2018-03-08T22:33:55.957Z,84.03
2018-03-08T22:36:23.392Z,84.50
2018-03-08T22:38:50.862Z,83.74
2018-03-08T22:41:18.298Z,84.08
2018-03-08T22:43:45.738Z,83.43
2018-03-08T22:46:13.197Z,84.44
2018-03-08T22:48:40.638Z,85.01
2018-03-08T22:51:08.130Z,84.53
2018-03-08T22:53:35.568Z,84.16
2018-03-08T22:56:03.016Z,83.98
2018-03-08T22:58:30.473Z,84.73
2018-03-08T23:00:57.911Z,84.52
2018-03-08T23:03:29.332Z,83.86
2018-03-08T23:05:56.766Z,84.17
2018-03-08T23:08:24.209Z,84.60
2018-03-08T23:10:51.677Z,85.15
2018-03-08T23:13:19.137Z,84.61
2018-03-08T23:15:46.570Z,84.01
2018-03-08T23:18:14.047Z,84.47
2018-03-08T23:20:41.493Z,84.41
2018-03-08T23:23:09.234Z,83.88
2018-03-08T23:25:36.678Z,84.10
2018-03-08T23:28:04.133Z,84.19
2018-03-08T23:30:31.589Z,83.85
2018-03-08T23:32:59.022Z,83.92
2018-03-08T23:35:26.494Z,84.20
2018-03-08T23:37:53.934Z,83.82
2018-03-08T23:40:21.369Z,83.49
2018-03-08T23:42:48.833Z,84.39
2018-03-08T23:45:16.278Z,84.62
2018-03-08T23:47:43.766Z,84.09
2018-03-08T23:50:11.202Z,83.79
2018-03-08T23:52:38.646Z,83.52
2018-03-08T23:55:06.101Z,84.41
2018-03-08T23:57:33.542Z,85.02
